createdAt,value
2023-03-05T00:01:33.581Z,1.96
2023-03-05T00:04:03.288Z,1.95
2023-03-05T00:06:32.865Z,1.93
2023-03-05T00:09:00.953Z,1.93
2023-03-05T00:11:30.524Z,1.93
2023-03-05T00:13:59.286Z,1.93
2023-03-05T00:16:27.924Z,1.92
2023-03-05T00:18:56.851Z,1.93
2023-03-05T00:21:32.689Z,1.95
2023-03-05T00:24:02.837Z,1.95
2023-03-05T00:26:31.304Z,1.95
2023-03-05T00:28:59.199Z,1.93
2023-03-05T00:31:30.963Z,1.90
2023-03-05T00:34:03.392Z,1.90
2023-03-05T00:36:31.185Z,1.89
2023-03-05T00:38:59.707Z,1.87
2023-03-05T00:41:27.946Z,1.87
2023-03-05T00:43:55.493Z,1.87
2023-03-05T00:46:23.438Z,1.85
2023-03-05T00:48:50.824Z,1.89
2023-03-05T00:51:19.377Z,1.96
2023-03-05T00:53:46.954Z,2.11
2023-03-05T00:56:14.691Z,2.24
2023-03-05T00:58:42.205Z,2.34
2023-03-05T01:01:10.202Z,2.40
2023-03-05T01:03:37.699Z,2.44
2023-03-05T01:06:09.265Z,2.44
2023-03-05T01:08:37.593Z,2.41
2023-03-05T01:11:07.295Z,2.40
2023-03-05T01:13:35.603Z,2.34
2023-03-05T01:16:04.372Z,2.34
2023-03-05T01:18:32.033Z,2.35
2023-03-05T01:20:59.501Z,2.40
2023-03-05T01:23:27.137Z,2.42
2023-03-05T01:25:59.665Z,2.46
2023-03-05T01:28:28.648Z,2.52
2023-03-05T01:30:56.024Z,2.55
2023-03-05T01:33:23.705Z,2.59
2023-03-05T01:35:51.378Z,2.66
2023-03-05T01:38:19.044Z,2.72
2023-03-05T01:40:46.728Z,2.75
2023-03-05T01:43:30.415Z,2.81
2023-03-05T01:46:34.892Z,2.86
2023-03-05T01:49:41.513Z,2.92
2023-03-05T01:52:17.960Z,2.95
2023-03-05T01:54:52.018Z,2.97
2023-03-05T01:57:40.238Z,2.97
2023-03-05T02:00:20.530Z,2.92
2023-03-05T02:02:51.413Z,2.93
2023-03-05T02:05:30.254Z,2.95
2023-03-05T02:08:01.169Z,2.93
2023-03-05T02:10:50.902Z,2.99
2023-03-05T02:13:24.970Z,3.06
2023-03-05T02:15:55.753Z,3.12
2023-03-05T02:18:23.809Z,3.16
2023-03-05T02:20:56.788Z,3.24
2023-03-05T02:23:28.517Z,3.28
2023-03-05T02:25:56.789Z,3.33
2023-03-05T02:28:27.338Z,3.37
2023-03-05T02:30:54.931Z,3.38
2023-03-05T02:33:22.736Z,3.42
2023-03-05T02:35:50.422Z,3.44
2023-03-05T02:38:20.643Z,3.50
2023-03-05T02:40:48.188Z,3.52
2023-03-05T02:43:16.916Z,3.52
2023-03-05T02:45:44.512Z,3.54
2023-03-05T02:48:11.937Z,3.50
2023-03-05T02:50:40.865Z,3.42
2023-03-05T02:53:08.292Z,3.33
2023-03-05T02:55:35.828Z,3.30
2023-03-05T02:58:03.303Z,3.20
2023-03-05T03:00:30.716Z,3.31
2023-03-05T03:02:58.157Z,3.30
2023-03-05T03:05:25.541Z,3.27
2023-03-05T03:07:53.117Z,3.33
2023-03-05T03:10:20.462Z,3.40
2023-03-05T03:12:47.826Z,3.42
2023-03-05T03:15:18.664Z,3.40
2023-03-05T03:17:46.229Z,3.44
2023-03-05T03:20:16.674Z,3.40
2023-03-05T03:22:46.182Z,3.42
2023-03-05T03:25:17.784Z,3.41
2023-03-05T03:27:45.310Z,3.40
2023-03-05T03:30:14.008Z,3.41
2023-03-05T03:32:41.641Z,3.42
2023-03-05T03:35:11.272Z,3.44
2023-03-05T03:37:39.161Z,3.47
2023-03-05T03:40:07.471Z,3.54
2023-03-05T03:42:34.908Z,3.55
2023-03-05T03:45:02.662Z,3.57
2023-03-05T03:47:31.297Z,3.58
2023-03-05T03:49:59.087Z,3.58
2023-03-05T03:52:26.961Z,3.58
2023-03-05T03:54:57.689Z,3.61
2023-03-05T03:57:25.048Z,3.58
2023-03-05T03:59:52.680Z,3.64
2023-03-05T04:02:20.179Z,3.67
2023-03-05T04:04:47.562Z,3.67
2023-03-05T04:07:15.090Z,3.67
2023-03-05T04:09:42.435Z,3.67
2023-03-05T04:12:10.106Z,3.68
2023-03-05T04:14:37.489Z,3.69
2023-03-05T04:17:04.896Z,3.69
2023-03-05T04:19:32.265Z,3.77
2023-03-05T04:21:59.735Z,3.77
2023-03-05T04:24:27.197Z,3.77
2023-03-05T04:26:54.537Z,3.75
2023-03-05T04:29:21.938Z,3.75
2023-03-05T04:31:49.276Z,3.77
2023-03-05T04:34:16.624Z,3.75
2023-03-05T04:36:44.575Z,3.75
2023-03-05T04:39:12.103Z,3.72
2023-03-05T04:41:39.419Z,3.69
2023-03-05T04:44:06.898Z,3.69
2023-03-05T04:46:34.524Z,3.69
2023-03-05T04:49:01.926Z,3.67
2023-03-05T04:51:29.234Z,3.67
2023-03-05T04:53:56.615Z,3.64
2023-03-05T04:56:24.058Z,3.61
2023-03-05T04:58:51.436Z,3.55
2023-03-05T05:01:18.863Z,3.50
2023-03-05T05:03:46.193Z,3.42
2023-03-05T05:06:13.619Z,3.40
2023-03-05T05:08:41.042Z,3.33
2023-03-05T05:11:08.587Z,3.27
2023-03-05T05:13:36.050Z,3.23
2023-03-05T05:16:07.545Z,3.23
2023-03-05T05:18:35.589Z,3.21
2023-03-05T05:21:09.171Z,3.27
2023-03-05T05:23:37.144Z,3.33
2023-03-05T05:26:07.693Z,3.41
2023-03-05T05:28:36.096Z,3.50
2023-03-05T05:31:09.107Z,3.54
2023-03-05T05:33:36.813Z,3.64
2023-03-05T05:36:07.554Z,3.72
2023-03-05T05:38:35.453Z,3.78
2023-03-05T05:41:18.544Z,3.83
2023-03-05T05:43:46.526Z,3.95
2023-03-05T05:46:19.014Z,4.00
2023-03-05T05:48:47.847Z,4.09
2023-03-05T05:51:21.064Z,4.19
2023-03-05T05:53:49.666Z,4.26
2023-03-05T05:56:18.091Z,4.32
2023-03-05T05:58:47.974Z,4.46
2023-03-05T06:01:24.420Z,4.56
2023-03-05T06:03:52.204Z,4.69
2023-03-05T06:06:22.706Z,4.78
2023-03-05T06:08:50.873Z,4.85
2023-03-05T06:11:19.726Z,4.93
2023-03-05T06:13:48.656Z,5.02
2023-03-05T06:16:20.464Z,5.20
2023-03-05T06:18:48.204Z,5.37
2023-03-05T06:21:19.571Z,5.46
2023-03-05T06:23:48.956Z,5.47
2023-03-05T06:26:21.785Z,5.58
2023-03-05T06:28:49.336Z,5.65
2023-03-05T06:31:22.000Z,5.73
2023-03-05T06:33:50.424Z,5.75
2023-03-05T06:36:21.968Z,5.79
2023-03-05T06:38:53.137Z,5.90
2023-03-05T06:41:25.303Z,6.01
2023-03-05T06:43:53.517Z,6.06
2023-03-05T06:46:30.658Z,6.08
2023-03-05T06:49:02.271Z,6.15
2023-03-05T06:51:36.477Z,6.40
2023-03-05T06:54:08.717Z,6.60
2023-03-05T06:56:40.786Z,7.01
2023-03-05T06:59:09.082Z,7.63
2023-03-05T07:01:36.685Z,8.29
2023-03-05T07:04:05.893Z,8.88
2023-03-05T07:06:36.521Z,8.87
2023-03-05T07:09:06.713Z,8.57
2023-03-05T07:11:34.380Z,8.02
2023-03-05T07:14:02.436Z,7.88
2023-03-05T07:16:33.082Z,7.60
2023-03-05T07:19:04.058Z,7.56
2023-03-05T07:21:34.189Z,7.50
2023-03-05T07:24:03.666Z,7.40
2023-03-05T07:26:33.597Z,7.28
2023-03-05T07:29:02.172Z,7.15
2023-03-05T07:31:31.154Z,7.29
2023-03-05T07:34:00.877Z,7.32
2023-03-05T07:36:28.889Z,7.22
2023-03-05T07:38:56.513Z,7.29
2023-03-05T07:41:24.141Z,7.39
2023-03-05T07:43:54.923Z,7.67
2023-03-05T07:46:27.327Z,7.76
2023-03-05T07:48:56.068Z,7.86
2023-03-05T07:51:26.547Z,8.05
2023-03-05T07:53:57.506Z,8.20
2023-03-05T07:56:32.253Z,8.55
2023-03-05T07:59:00.610Z,8.72
2023-03-05T08:01:30.132Z,8.76
2023-03-05T08:03:57.904Z,8.88
2023-03-05T08:06:25.450Z,8.90
2023-03-05T08:08:53.161Z,8.77
2023-03-05T08:11:20.728Z,8.43
2023-03-05T08:13:48.368Z,8.20
2023-03-05T08:16:20.025Z,8.18
2023-03-05T08:18:49.584Z,8.18
2023-03-05T08:21:21.873Z,8.32
2023-03-05T08:23:49.895Z,8.64
2023-03-05T08:26:21.313Z,8.63
2023-03-05T08:28:49.432Z,8.57
2023-03-05T08:31:19.944Z,8.62
2023-03-05T08:33:49.896Z,8.53
2023-03-05T08:36:17.340Z,8.39
2023-03-05T08:38:46.795Z,8.34
2023-03-05T08:41:16.506Z,8.25
2023-03-05T08:43:44.309Z,8.41
2023-03-05T08:46:13.512Z,8.56
2023-03-05T08:48:41.087Z,8.56
2023-03-05T08:51:12.713Z,8.88
2023-03-05T08:53:41.036Z,8.97
2023-03-05T08:56:09.315Z,9.14
2023-03-05T08:58:36.994Z,9.12
2023-03-05T09:01:05.764Z,9.28
2023-03-05T09:03:33.115Z,9.24
2023-03-05T09:06:04.470Z,9.18
2023-03-05T09:08:31.886Z,9.38
2023-03-05T09:11:02.997Z,8.96
2023-03-05T09:13:30.585Z,9.08
2023-03-05T09:16:01.921Z,9.10
2023-03-05T09:18:30.501Z,9.31
2023-03-05T09:20:58.139Z,9.46
2023-03-05T09:23:25.655Z,9.59
2023-03-05T09:25:53.067Z,9.78
2023-03-05T09:28:20.399Z,9.72
2023-03-05T09:30:47.823Z,9.53
2023-03-05T09:33:15.212Z,9.51
2023-03-05T09:35:42.618Z,9.52
2023-03-05T09:38:10.113Z,9.82
2023-03-05T09:40:51.125Z,9.76
2023-03-05T09:43:35.925Z,10.20
2023-03-05T09:46:32.064Z,10.11
2023-03-05T09:49:20.933Z,10.00
2023-03-05T09:51:57.622Z,9.93
2023-03-05T09:54:37.696Z,10.03
2023-03-05T09:57:15.264Z,10.54
2023-03-05T10:00:08.900Z,10.92
2023-03-05T10:02:53.737Z,11.19
2023-03-05T10:05:53.433Z,11.09
2023-03-05T10:08:28.505Z,10.71
2023-03-05T10:10:56.144Z,10.65
2023-03-05T10:13:32.303Z,10.88
2023-03-05T10:16:36.775Z,11.35
2023-03-05T10:19:19.679Z,11.26
2023-03-05T10:22:13.144Z,10.89
2023-03-05T10:25:16.277Z,10.83
2023-03-05T10:28:06.159Z,10.66
2023-03-05T10:30:54.629Z,10.35
2023-03-05T10:34:07.047Z,10.37
2023-03-05T10:36:45.730Z,11.26
2023-03-05T10:39:42.105Z,11.42
2023-03-05T10:42:31.269Z,12.34
2023-03-05T10:45:09.348Z,12.75
2023-03-05T10:47:57.500Z,13.05
2023-03-05T10:50:33.568Z,13.06
2023-03-05T10:53:27.658Z,13.67
2023-03-05T10:55:56.638Z,13.97
2023-03-05T10:58:25.166Z,13.97
2023-03-05T11:01:18.897Z,13.91
2023-03-05T11:03:58.167Z,14.38
2023-03-05T11:06:48.257Z,13.60
2023-03-05T11:09:24.353Z,13.30
2023-03-05T11:12:17.009Z,13.67
2023-03-05T11:15:10.588Z,13.85
2023-03-05T11:18:03.281Z,13.38
2023-03-05T11:20:36.886Z,13.16
2023-03-05T11:23:10.636Z,13.18
2023-03-05T11:25:53.262Z,13.18
2023-03-05T11:28:33.549Z,12.65
2023-03-05T11:31:27.648Z,13.05
2023-03-05T11:34:00.463Z,13.13
2023-03-05T11:36:40.580Z,13.16
2023-03-05T11:39:08.037Z,13.04
2023-03-05T11:41:38.241Z,13.71
2023-03-05T11:44:15.117Z,13.91
2023-03-05T11:46:51.174Z,13.77
2023-03-05T11:49:25.932Z,12.96
2023-03-05T11:52:22.421Z,13.25
2023-03-05T11:55:19.020Z,13.27
2023-03-05T11:58:11.381Z,13.63
2023-03-05T12:00:44.641Z,13.43
2023-03-05T12:03:17.217Z,13.15
2023-03-05T12:05:54.197Z,13.06
2023-03-05T12:08:31.335Z,12.88
2023-03-05T12:11:07.230Z,13.05
2023-03-05T12:13:43.215Z,12.81
2023-03-05T12:16:32.668Z,12.41
2023-03-05T12:19:18.931Z,12.47
2023-03-05T12:21:52.098Z,12.58
2023-03-05T12:24:27.876Z,12.77
2023-03-05T12:27:04.694Z,12.48
2023-03-05T12:29:52.369Z,11.75
2023-03-05T12:32:22.838Z,12.13
2023-03-05T12:35:00.374Z,12.73
2023-03-05T12:37:28.157Z,12.99
2023-03-05T12:40:21.077Z,12.57
2023-03-05T12:43:28.494Z,12.09
2023-03-05T12:46:24.699Z,11.67
2023-03-05T12:48:52.391Z,11.62
2023-03-05T12:51:33.856Z,11.58
2023-03-05T12:54:25.882Z,11.82
2023-03-05T12:56:57.639Z,11.93
2023-03-05T12:59:38.978Z,11.93
2023-03-05T13:02:25.949Z,11.82
2023-03-05T13:05:04.241Z,11.64
2023-03-05T13:07:31.585Z,11.75
2023-03-05T13:09:59.981Z,11.65
2023-03-05T13:12:29.998Z,11.68
2023-03-05T13:15:01.647Z,11.52
2023-03-05T13:17:51.955Z,11.50
2023-03-05T13:20:34.078Z,11.42
2023-03-05T13:23:26.746Z,11.44
2023-03-05T13:26:08.929Z,11.31
2023-03-05T13:28:39.273Z,11.14
2023-03-05T13:31:19.185Z,11.02
2023-03-05T13:33:54.344Z,10.72
2023-03-05T13:36:25.405Z,10.49
2023-03-05T13:38:54.186Z,10.13
2023-03-05T13:41:28.028Z,9.83
2023-03-05T13:43:59.796Z,9.58
2023-03-05T13:46:39.260Z,9.18
2023-03-05T13:49:27.820Z,8.94
2023-03-05T13:51:59.296Z,8.87
2023-03-05T13:54:28.667Z,8.76
2023-03-05T13:57:05.264Z,8.70
2023-03-05T13:59:39.161Z,8.55
2023-03-05T14:02:19.733Z,8.56
2023-03-05T14:04:47.830Z,8.50
2023-03-05T14:07:26.941Z,8.36
2023-03-05T14:09:56.725Z,8.35
2023-03-05T14:12:32.158Z,8.28
2023-03-05T14:15:02.320Z,8.34
2023-03-05T14:17:40.278Z,8.39
2023-03-05T14:20:13.780Z,8.49
2023-03-05T14:22:46.119Z,8.62
2023-03-05T14:25:42.391Z,8.72
2023-03-05T14:28:18.968Z,8.76
2023-03-05T14:30:48.246Z,8.79
2023-03-05T14:33:30.489Z,8.84
2023-03-05T14:36:00.914Z,8.77
2023-03-05T14:38:34.125Z,8.73
2023-03-05T14:41:36.120Z,8.76
2023-03-05T14:44:12.629Z,8.63
2023-03-05T14:46:41.163Z,8.62
2023-03-05T14:49:08.751Z,8.67
2023-03-05T14:51:42.477Z,8.70
2023-03-05T14:54:26.235Z,8.64
2023-03-05T14:56:53.937Z,8.62
2023-03-05T14:59:21.820Z,8.42
2023-03-05T15:01:50.952Z,8.36
2023-03-05T15:04:21.078Z,8.34
2023-03-05T15:06:51.253Z,8.18
2023-03-05T15:09:21.149Z,8.07
2023-03-05T15:11:49.236Z,7.93
2023-03-05T15:14:16.771Z,7.86
2023-03-05T15:16:45.970Z,7.84
2023-03-05T15:19:13.802Z,7.80
2023-03-05T15:21:41.539Z,7.76
2023-03-05T15:24:11.261Z,7.74
2023-03-05T15:26:39.051Z,7.70
2023-03-05T15:29:06.504Z,7.62
2023-03-05T15:31:38.867Z,7.55
2023-03-05T15:34:06.952Z,7.43
2023-03-05T15:36:34.270Z,7.35
2023-03-05T15:39:01.681Z,7.28
2023-03-05T15:41:29.108Z,7.15
2023-03-05T15:43:56.492Z,7.08
2023-03-05T15:46:24.033Z,6.97
2023-03-05T15:48:51.402Z,6.84
2023-03-05T15:51:20.161Z,6.76
2023-03-05T15:53:47.982Z,6.71
2023-03-05T15:56:17.504Z,6.64
2023-03-05T15:58:45.513Z,6.58
2023-03-05T16:01:13.443Z,6.53
2023-03-05T16:03:40.923Z,6.44
2023-03-05T16:06:09.884Z,6.29
2023-03-05T16:08:37.601Z,6.16
2023-03-05T16:11:06.085Z,6.02
2023-03-05T16:13:34.599Z,5.90
2023-03-05T16:16:04.714Z,5.78
2023-03-05T16:18:36.455Z,5.70
2023-03-05T16:21:03.943Z,5.61
2023-03-05T16:23:31.389Z,5.48
2023-03-05T16:25:59.830Z,5.37
2023-03-05T16:28:27.339Z,5.23
2023-03-05T16:30:57.132Z,5.12
2023-03-05T16:33:25.111Z,5.04
2023-03-05T16:36:21.975Z,4.93
2023-03-05T16:38:52.046Z,4.91
2023-03-05T16:41:23.269Z,4.81
2023-03-05T16:43:56.236Z,4.72
2023-03-05T16:46:26.726Z,4.62
2023-03-05T16:48:54.450Z,4.50
2023-03-05T16:51:22.656Z,4.41
2023-03-05T16:53:50.143Z,4.26
2023-03-05T16:56:18.192Z,4.14
2023-03-05T16:58:45.853Z,4.02
2023-03-05T17:01:19.875Z,3.89
2023-03-05T17:03:48.099Z,3.79
2023-03-05T17:06:23.865Z,3.77
2023-03-05T17:08:52.667Z,3.74
2023-03-05T17:11:21.427Z,3.71
2023-03-05T17:13:49.337Z,3.71
2023-03-05T17:16:19.497Z,3.71
2023-03-05T17:18:48.006Z,3.61
2023-03-05T17:21:16.574Z,3.51
2023-03-05T17:23:44.032Z,3.41
2023-03-05T17:26:17.892Z,3.34
2023-03-05T17:28:46.490Z,3.26
2023-03-05T17:31:14.740Z,3.24
2023-03-05T17:33:42.670Z,3.19
2023-03-05T17:36:19.581Z,3.14
2023-03-05T17:38:47.988Z,3.12
2023-03-05T17:41:18.112Z,3.07
2023-03-05T17:43:45.783Z,3.04
2023-03-05T17:46:13.992Z,2.99
2023-03-05T17:48:41.825Z,2.97
2023-03-05T17:51:13.560Z,2.95
2023-03-05T17:53:41.335Z,2.93
2023-03-05T17:56:12.099Z,2.93
2023-03-05T17:58:40.346Z,2.91
2023-03-05T18:01:08.726Z,2.86
2023-03-05T18:03:37.134Z,2.83
2023-03-05T18:06:05.065Z,2.79
2023-03-05T18:08:32.720Z,2.74
2023-03-05T18:11:00.179Z,2.68
2023-03-05T18:13:27.672Z,2.62
2023-03-05T18:15:59.892Z,2.66
2023-03-05T18:18:27.792Z,2.62
2023-03-05T18:20:55.269Z,2.74
2023-03-05T18:23:22.713Z,2.78
2023-03-05T18:25:50.109Z,2.88
2023-03-05T18:28:17.926Z,2.93
2023-03-05T18:30:46.877Z,2.99
2023-03-05T18:33:23.303Z,2.97
2023-03-05T18:35:52.640Z,2.96
2023-03-05T18:38:26.561Z,2.95
2023-03-05T18:40:56.633Z,2.93
2023-03-05T18:43:24.884Z,2.91
2023-03-05T18:45:55.189Z,2.91
2023-03-05T18:48:23.151Z,2.86
2023-03-05T18:50:52.952Z,2.83
2023-03-05T18:53:22.069Z,2.81
2023-03-05T18:55:51.955Z,2.79
2023-03-05T18:58:19.658Z,2.76
2023-03-05T19:00:47.915Z,2.75
2023-03-05T19:03:18.727Z,2.68
2023-03-05T19:05:47.232Z,2.65
2023-03-05T19:08:14.647Z,2.65
2023-03-05T19:10:42.202Z,2.58
2023-03-05T19:13:48.902Z,2.51
2023-03-05T19:16:29.375Z,2.44
2023-03-05T19:19:22.568Z,2.38
2023-03-05T19:21:54.137Z,2.30
2023-03-05T19:24:24.713Z,2.28
2023-03-05T19:26:55.364Z,2.27
2023-03-05T19:29:24.171Z,2.24
2023-03-05T19:31:52.615Z,2.21
2023-03-05T19:34:20.731Z,2.17
2023-03-05T19:36:48.194Z,2.16
2023-03-05T19:39:15.768Z,2.14
2023-03-05T19:41:43.336Z,2.11
2023-03-05T19:44:11.946Z,2.07
2023-03-05T19:46:41.706Z,2.00
2023-03-05T19:49:10.162Z,1.97
2023-03-05T19:51:40.231Z,1.97
2023-03-05T19:54:08.047Z,1.93
2023-03-05T19:56:39.087Z,1.93
2023-03-05T19:59:07.396Z,1.93
2023-03-05T20:01:35.900Z,1.89
2023-03-05T20:04:05.248Z,1.90
2023-03-05T20:06:33.810Z,1.86
2023-03-05T20:09:01.308Z,1.79
2023-03-05T20:11:28.891Z,1.76
2023-03-05T20:13:56.933Z,1.70
2023-03-05T20:16:35.211Z,1.68
2023-03-05T20:19:05.760Z,1.62
2023-03-05T20:21:39.300Z,1.60
2023-03-05T20:24:15.119Z,1.60
2023-03-05T20:26:45.710Z,1.58
2023-03-05T20:29:17.631Z,1.56
2023-03-05T20:31:46.845Z,1.55
2023-03-05T20:34:17.707Z,1.55
2023-03-05T20:36:45.724Z,1.54
2023-03-05T20:39:13.255Z,1.51
2023-03-05T20:41:41.861Z,1.45
2023-03-05T20:44:11.380Z,1.44
2023-03-05T20:47:30.720Z,1.41
2023-03-05T20:50:00.573Z,1.37
2023-03-05T20:52:27.999Z,1.34
2023-03-05T20:54:55.373Z,1.30
2023-03-05T20:57:22.753Z,1.28
2023-03-05T20:59:50.154Z,1.23
2023-03-05T21:02:18.433Z,1.20
2023-03-05T21:04:45.793Z,1.18
2023-03-05T21:07:13.319Z,1.16
2023-03-05T21:09:40.765Z,1.16
2023-03-05T21:12:09.261Z,1.14
2023-03-05T21:14:38.122Z,1.10
2023-03-05T21:17:05.484Z,1.08
2023-03-05T21:19:37.014Z,1.07
2023-03-05T21:22:04.631Z,1.05
2023-03-05T21:25:26.932Z,1.01
2023-03-05T21:27:58.676Z,0.96
2023-03-05T21:30:33.642Z,0.94
2023-03-05T21:33:07.326Z,0.87
2023-03-05T21:35:36.700Z,0.89
2023-03-05T21:38:06.280Z,0.84
2023-03-05T21:40:35.695Z,0.80
2023-03-05T21:43:03.819Z,0.77
2023-03-05T21:45:31.662Z,0.73
2023-03-05T21:47:59.856Z,0.73
2023-03-05T21:50:27.475Z,0.70
2023-03-05T21:52:55.119Z,0.68
2023-03-05T21:55:57.904Z,0.68
2023-03-05T21:58:33.750Z,0.65
2023-03-05T22:01:01.584Z,0.66
2023-03-05T22:03:29.997Z,0.62
2023-03-05T22:05:57.730Z,0.62
2023-03-05T22:08:25.266Z,0.59
2023-03-05T22:10:52.785Z,0.62
2023-03-05T22:13:20.711Z,0.61
2023-03-05T22:15:49.166Z,0.56
2023-03-05T22:18:36.878Z,0.55
2023-03-05T22:21:05.407Z,0.55
2023-03-05T22:23:34.601Z,0.49
2023-03-05T22:26:07.259Z,0.48
2023-03-05T22:28:36.021Z,0.49
2023-03-05T22:31:03.603Z,0.45
2023-03-05T22:33:31.853Z,0.45
2023-03-05T22:35:59.557Z,0.42
2023-03-05T22:38:27.051Z,0.46
2023-03-05T22:40:54.994Z,0.51
2023-03-05T22:43:22.357Z,0.52
2023-03-05T22:45:49.923Z,0.52
2023-03-05T22:48:17.301Z,0.49
2023-03-05T22:50:45.040Z,0.49
2023-03-05T22:53:12.986Z,0.45
2023-03-05T22:55:42.121Z,0.44
2023-03-05T22:58:10.387Z,0.45
2023-03-05T23:00:37.950Z,0.42
2023-03-05T23:03:06.467Z,0.44
2023-03-05T23:05:34.885Z,0.44
2023-03-05T23:08:02.323Z,0.40
2023-03-05T23:10:29.948Z,0.31
2023-03-05T23:13:00.360Z,0.28
2023-03-05T23:15:35.168Z,0.22
2023-03-05T23:18:03.808Z,0.24
2023-03-05T23:20:34.267Z,0.18
2023-03-05T23:23:03.310Z,0.18
2023-03-05T23:25:33.575Z,0.18
2023-03-05T23:28:02.805Z,0.13
2023-03-05T23:30:37.286Z,0.14
2023-03-05T23:33:18.025Z,0.11
2023-03-05T23:36:01.277Z,0.08
2023-03-05T23:38:30.242Z,0.03
2023-03-05T23:41:01.424Z,-0.03
2023-03-05T23:43:29.487Z,-0.05
2023-03-05T23:45:57.388Z,-0.02
2023-03-05T23:48:26.834Z,-0.02
2023-03-05T23:50:55.616Z,-0.02
2023-03-05T23:53:26.744Z,0.03
2023-03-05T23:55:55.720Z,0.01
2023-03-05T23:58:24.134Z,0.01
